Time;durP1;ratioP1;P1;durP2;ratioP2;P2;SDS_P1;SDS_P2;PMS_P1;PMS_P2;Temp;Humidity;BMP_temperature;BMP_pressure;BME280_temperature;BME280_humidity;BME280_pressure;Samples;Min_cycle;Max_cycle;Signal;HPM_P1;HPM_P2
2021/10/15 00:00:01;;;;;;;12.60;5.90;;;;;;;9.36;57.64;100198.84;27251;1216;3026161;-66
2021/10/15 00:02:30;;;;;;;9.40;5.90;;;;;;;9.32;57.82;100197.82;27221;1216;3047360;-68
2021/10/15 00:04:59;;;;;;;6.90;4.30;;;;;;;9.33;57.75;100196.87;27202;1216;3027063;-64
2021/10/15 00:07:28;;;;;;;6.10;4.70;;;;;;;9.39;57.22;100192.77;27263;1216;3057725;-72
2021/10/15 00:09:57;;;;;;;12.10;4.90;;;;;;;9.46;56.79;100190.52;27244;1216;3025906;-69
2021/10/15 00:12:39;;;;;;;9.60;5.10;;;;;;;9.46;56.73;100187.06;27250;1216;3054741;-65
2021/10/15 00:15:09;;;;;;;8.90;4.90;;;;;;;9.53;56.55;100181.16;27218;1216;3026462;-71
2021/10/15 00:17:40;;;;;;;9.90;5.50;;;;;;;9.54;56.23;100178.83;27185;1218;3026188;-67
2021/10/15 00:20:12;;;;;;;9.90;5.30;;;;;;;9.57;56.42;100176.25;27202;1216;3026215;-69
2021/10/15 00:22:41;;;;;;;8.40;4.40;;;;;;;9.58;56.30;100173.56;27204;1216;3025857;-67
2021/10/15 00:25:10;;;;;;;10.00;5.00;;;;;;;9.60;56.20;100170.89;27248;1216;3025858;-73
2021/10/15 00:27:39;;;;;;;5.60;4.60;;;;;;;9.59;56.28;100173.88;27243;1216;3054970;-72
2021/10/15 00:30:08;;;;;;;9.60;6.00;;;;;;;9.62;56.62;100175.16;27265;1216;3026788;-70
2021/10/15 00:32:40;;;;;;;8.20;5.70;;;;;;;9.54;57.21;100176.72;27217;1216;3050379;-68
2021/10/15 00:35:10;;;;;;;9.10;5.90;;;;;;;9.60;57.22;100179.26;27244;1216;3026428;-72
2021/10/15 00:37:39;;;;;;;13.20;6.40;;;;;;;9.56;57.29;100177.69;27240;1216;3058116;-69
2021/10/15 00:40:09;;;;;;;7.40;5.20;;;;;;;9.56;57.53;100173.66;27212;1216;3026959;-68
2021/10/15 00:42:38;;;;;;;7.60;5.00;;;;;;;9.56;57.41;100175.41;27258;1216;3026226;-73
2021/10/15 00:45:07;;;;;;;7.80;4.80;;;;;;;9.58;57.39;100177.09;27280;1216;3027805;-69
2021/10/15 00:47:36;;;;;;;7.70;4.10;;;;;;;9.52;57.59;100172.63;27237;1216;3048434;-68
2021/10/15 00:50:06;;;;;;;7.80;5.00;;;;;;;9.59;57.41;100177.39;27282;1216;3026152;-74
2021/10/15 00:52:35;;;;;;;9.10;5.20;;;;;;;9.62;57.13;100178.13;27273;1216;3058335;-68
2021/10/15 00:55:05;;;;;;;9.60;5.50;;;;;;;9.58;56.99;100178.67;27273;1216;3028465;-66
2021/10/15 00:57:34;;;;;;;11.40;5.10;;;;;;;9.59;57.13;100179.80;27206;1208;3026065;-66
2021/10/15 01:00:04;;;;;;;8.90;4.70;;;;;;;9.63;57.00;100182.10;27277;1216;3026822;-70
2021/10/15 01:02:33;;;;;;;9.20;4.50;;;;;;;9.66;56.94;100181.47;27241;1216;3048364;-69
2021/10/15 01:05:06;;;;;;;9.40;5.60;;;;;;;9.67;56.86;100184.88;27252;1216;3026456;-67
2021/10/15 01:07:37;;;;;;;10.10;4.80;;;;;;;9.64;57.09;100187.29;27225;1216;3026807;-65
2021/10/15 01:10:06;;;;;;;8.10;5.20;;;;;;;9.66;56.90;100191.59;27205;1216;3026263;-65
2021/10/15 01:12:35;;;;;;;10.50;5.00;;;;;;;9.66;56.77;100195.06;27242;1216;3028403;-70
2021/10/15 01:15:04;;;;;;;9.30;5.00;;;;;;;9.56;57.03;100196.24;27259;1216;3052996;-68
2021/10/15 01:17:34;;;;;;;9.90;4.60;;;;;;;9.63;56.87;100198.17;27217;1216;3026394;-68
2021/10/15 01:20:04;;;;;;;10.70;6.10;;;;;;;9.69;56.85;100196.52;27211;1216;3027646;-67
2021/10/15 01:22:35;;;;;;;9.10;5.50;;;;;;;9.67;56.96;100198.70;27220;1216;3051327;-71
2021/10/15 01:25:04;;;;;;;10.00;6.40;;;;;;;9.60;57.31;100199.20;27223;1216;3026711;-69
2021/10/15 01:27:33;;;;;;;14.20;6.50;;;;;;;9.57;57.45;100202.15;27220;1216;3055075;-71
2021/10/15 01:30:02;;;;;;;14.10;7.80;;;;;;;9.57;57.57;100206.48;27260;1216;3025742;-68
2021/10/15 01:32:31;;;;;;;18.60;7.70;;;;;;;9.47;58.22;100212.70;27274;1216;3051013;-69
2021/10/15 01:35:00;;;;;;;16.30;8.00;;;;;;;9.35;59.02;100211.34;27228;1216;3026131;-68
2021/10/15 01:37:29;;;;;;;15.90;8.80;;;;;;;9.30;59.25;100212.94;27207;1216;3055034;-70
2021/10/15 01:40:00;;;;;;;17.50;9.70;;;;;;;9.29;59.54;100206.69;27227;1216;3027906;-67
2021/10/15 01:45:16;;;;;;;18.70;10.00;;;;;;;9.15;60.76;100210.76;27280;1216;3058575;-68
2021/10/15 01:47:47;;;;;;;17.10;9.10;;;;;;;9.07;61.47;100212.00;27211;1216;3026162;-67
2021/10/15 01:50:16;;;;;;;21.50;10.40;;;;;;;9.13;61.09;100215.08;27204;1216;3028349;-71
2021/10/15 01:52:45;;;;;;;19.00;11.30;;;;;;;9.15;61.43;100218.64;27209;1216;3058133;-71
2021/10/15 01:55:14;;;;;;;21.40;10.70;;;;;;;9.14;61.34;100213.98;27256;1216;3027169;-69
2021/10/15 01:57:43;;;;;;;16.60;8.80;;;;;;;9.19;60.42;100210.61;27232;1216;3055720;-68
2021/10/15 02:00:13;;;;;;;16.60;8.90;;;;;;;9.25;59.93;100215.77;27194;1216;3027336;-69
2021/10/15 02:02:44;;;;;;;16.70;9.60;;;;;;;9.23;59.57;100213.92;27241;1216;3026496;-67
2021/10/15 02:05:15;;;;;;;18.40;9.90;;;;;;;9.28;59.49;100211.94;27250;1216;3026222;-69
2021/10/15 02:07:44;;;;;;;26.30;10.10;;;;;;;9.24;59.62;100214.39;27267;1216;3055185;-67
2021/10/15 02:10:15;;;;;;;21.10;9.80;;;;;;;9.23;59.56;100219.00;27233;1216;3026885;-65
2021/10/15 02:12:44;;;;;;;25.60;10.80;;;;;;;9.31;59.42;100218.86;27241;1208;3027691;-73
2021/10/15 02:15:13;;;;;;;22.60;11.90;;;;;;;9.34;59.40;100216.25;27237;1208;3026095;-69
2021/10/15 02:17:43;;;;;;;21.40;11.00;;;;;;;9.35;60.06;100220.40;27210;1216;3051751;-69
2021/10/15 02:20:13;;;;;;;19.40;10.50;;;;;;;9.34;59.77;100219.05;27213;1216;3026390;-69
2021/10/15 02:22:45;;;;;;;20.90;10.00;;;;;;;9.34;59.53;100222.53;27234;1216;3057318;-70
2021/10/15 02:25:15;;;;;;;20.80;10.30;;;;;;;9.38;59.37;100224.30;27261;1216;3027725;-66
2021/10/15 02:27:46;;;;;;;17.90;10.30;;;;;;;9.45;59.38;100223.48;27212;1217;3026557;-71
2021/10/15 02:30:16;;;;;;;17.60;10.00;;;;;;;9.51;59.66;100223.38;27229;1217;3026237;-72
2021/10/15 02:32:46;;;;;;;24.00;10.40;;;;;;;9.55;59.11;100220.40;27205;1216;3048646;-74
2021/10/15 02:35:15;;;;;;;21.60;10.80;;;;;;;9.55;58.88;100221.27;27258;1216;3026793;-68
2021/10/15 02:37:45;;;;;;;27.00;11.40;;;;;;;9.58;59.46;100220.26;27242;1216;3027254;-65
2021/10/15 02:40:14;;;;;;;24.70;12.20;;;;;;;9.62;59.41;100226.39;27252;1216;3026428;-67
2021/10/15 02:42:43;;;;;;;26.40;12.80;;;;;;;9.66;59.96;100227.45;27192;1216;3028348;-65
2021/10/15 02:45:12;;;;;;;23.90;12.20;;;;;;;9.69;59.51;100228.71;27191;1216;3052753;-73
2021/10/15 02:47:41;;;;;;;25.50;12.60;;;;;;;9.68;59.72;100229.30;27204;1216;3026360;-67
2021/10/15 02:50:10;;;;;;;26.80;13.80;;;;;;;9.66;62.43;100229.54;27237;1217;3053475;-71
2021/10/15 02:52:39;;;;;;;27.60;14.80;;;;;;;9.61;62.98;100229.42;27224;1216;3026086;-70
2021/10/15 02:55:08;;;;;;;44.80;22.30;;;;;;;9.50;63.49;100226.73;27200;1216;3048754;-71
2021/10/15 02:57:38;;;;;;;52.30;26.50;;;;;;;9.38;63.32;100227.08;27217;1216;3026890;-66
2021/10/15 03:00:08;;;;;;;50.50;25.30;;;;;;;9.27;64.10;100229.11;27213;1216;3026588;-67
2021/10/15 03:02:36;;;;;;;60.10;27.40;;;;;;;9.29;63.80;100231.17;27255;1217;3026048;-69
2021/10/15 03:05:06;;;;;;;47.40;25.00;;;;;;;9.24;64.37;100231.86;27229;1216;3026288;-69
2021/10/15 03:07:37;;;;;;;56.10;24.90;;;;;;;9.20;64.07;100231.36;27223;1217;3049686;-65
2021/10/15 03:10:08;;;;;;;52.90;25.60;;;;;;;9.16;64.47;100230.48;27244;1208;3026140;-66
2021/10/15 03:12:37;;;;;;;70.30;33.10;;;;;;;9.09;64.24;100238.11;27241;1216;3051935;-70
2021/10/15 03:15:08;;;;;;;63.20;32.70;;;;;;;9.00;65.13;100236.77;27265;1217;3027824;-65
2021/10/15 03:17:37;;;;;;;53.80;27.10;;;;;;;8.91;64.87;100232.02;27243;1216;3028256;-71
2021/10/15 03:20:07;;;;;;;54.00;27.10;;;;;;;8.87;64.25;100228.89;27247;1216;3026550;-65
2021/10/15 03:22:37;;;;;;;52.50;26.10;;;;;;;8.83;64.30;100222.40;27217;1217;3050973;-67
2021/10/15 03:25:07;;;;;;;44.60;22.70;;;;;;;8.79;64.20;100228.36;27226;1217;3028041;-70
2021/10/15 03:27:35;;;;;;;58.90;26.20;;;;;;;8.75;64.58;100233.42;27263;1216;3052403;-69
2021/10/15 03:30:05;;;;;;;42.60;20.70;;;;;;;8.76;64.46;100227.44;27280;1218;3026066;-66
2021/10/15 03:32:34;;;;;;;42.20;20.20;;;;;;;8.68;64.06;100225.98;27221;1216;3048858;-68
2021/10/15 03:35:03;;;;;;;38.00;18.30;;;;;;;8.64;64.38;100221.45;27239;1216;3026394;-67
2021/10/15 03:37:32;;;;;;;39.10;18.90;;;;;;;8.66;64.24;100218.92;27279;1216;3056499;-71
2021/10/15 03:40:01;;;;;;;51.40;18.60;;;;;;;8.65;64.03;100221.39;27211;1216;3026053;-69
2021/10/15 03:42:30;;;;;;;47.10;18.50;;;;;;;8.67;63.86;100217.30;27213;1216;3051907;-70
2021/10/15 03:44:59;;;;;;;38.00;17.20;;;;;;;8.69;63.87;100221.41;27204;1208;3025971;-69
2021/10/15 03:47:28;;;;;;;37.40;17.30;;;;;;;8.74;63.62;100225.77;27294;1208;3054138;-65
2021/10/15 03:49:57;;;;;;;41.90;16.70;;;;;;;8.71;63.35;100226.39;27268;1217;3026240;-67
2021/10/15 03:52:27;;;;;;;36.60;16.30;;;;;;;8.68;63.49;100224.58;27274;1217;3048631;-71
2021/10/15 03:54:56;;;;;;;29.30;15.00;;;;;;;8.67;63.58;100230.26;27258;1216;3026981;-72
2021/10/15 03:57:25;;;;;;;37.10;16.80;;;;;;;8.67;63.27;100229.00;27228;1216;3067793;-66
2021/10/15 03:59:54;;;;;;;38.40;17.50;;;;;;;8.69;63.14;100225.77;27262;1217;3027015;-65
2021/10/15 04:02:23;;;;;;;45.00;18.20;;;;;;;8.72;63.11;100226.90;27267;1217;3050500;-69
2021/10/15 04:04:52;;;;;;;42.00;16.80;;;;;;;8.75;63.20;100233.07;27304;1217;3026913;-69
2021/10/15 04:07:21;;;;;;;44.20;18.20;;;;;;;8.79;63.00;100236.73;27216;1217;3026268;-71
2021/10/15 04:09:51;;;;;;;37.10;17.40;;;;;;;8.79;62.97;100239.89;27233;1217;3050132;-72
2021/10/15 04:12:20;;;;;;;36.20;17.00;;;;;;;8.74;63.03;100242.02;27203;1217;3026458;-71
2021/10/15 04:14:49;;;;;;;40.70;17.70;;;;;;;8.75;62.81;100240.59;27200;1217;3026167;-65
2021/10/15 04:17:18;;;;;;;40.40;16.50;;;;;;;8.79;62.67;100240.08;27272;1216;3026258;-71
2021/10/15 04:19:47;;;;;;;39.40;14.80;;;;;;;8.78;62.70;100244.28;27201;1216;3071205;-71
2021/10/15 04:22:16;;;;;;;38.10;17.20;;;;;;;8.72;62.58;100246.64;27206;1216;3025960;-69
2021/10/15 04:24:45;;;;;;;43.90;18.80;;;;;;;8.61;63.29;100246.55;27262;1217;3052494;-66
2021/10/15 04:27:14;;;;;;;32.30;16.70;;;;;;;8.59;63.03;100251.17;27193;1216;3028391;-69
2021/10/15 04:29:43;;;;;;;49.80;17.90;;;;;;;8.67;63.02;100256.05;27211;1216;3052824;-71
2021/10/15 04:32:13;;;;;;;46.50;17.70;;;;;;;8.76;62.68;100260.27;27239;1216;3026009;-70
2021/10/15 04:34:42;;;;;;;62.30;27.50;;;;;;;8.83;62.25;100268.73;27226;1216;3051839;-68
2021/10/15 04:37:11;;;;;;;51.20;22.70;;;;;;;8.89;61.87;100273.87;27242;1208;3026116;-69
2021/10/15 04:39:40;;;;;;;72.70;29.70;;;;;;;8.92;62.32;100274.31;27229;1216;3057718;-71
2021/10/15 04:42:09;;;;;;;55.70;22.10;;;;;;;8.96;61.84;100273.08;27207;1217;3026691;-68
2021/10/15 04:44:38;;;;;;;55.40;23.10;;;;;;;9.06;61.61;100277.02;27209;1217;3051778;-69
2021/10/15 04:47:07;;;;;;;63.00;22.70;;;;;;;9.09;61.25;100288.48;27277;1216;3026295;-67
2021/10/15 04:49:41;;;;;;;51.00;18.30;;;;;;;9.14;61.24;100296.11;27213;1216;3051182;-70
2021/10/15 04:52:10;;;;;;;27.40;11.80;;;;;;;9.19;60.37;100291.02;27224;1216;3025753;-70
2021/10/15 04:54:40;;;;;;;395.00;122.50;;;;;;;9.26;60.19;100287.77;27218;1216;3047816;-64
2021/10/15 04:57:09;;;;;;;97.00;32.80;;;;;;;9.31;59.67;100285.79;27231;1217;3026230;-73
2021/10/15 04:59:38;;;;;;;63.00;24.00;;;;;;;9.39;59.50;100279.33;27182;1216;3070004;-68
2021/10/15 05:02:07;;;;;;;83.10;28.10;;;;;;;9.45;59.38;100279.61;27241;1216;3026158;-72
2021/10/15 05:04:36;;;;;;;65.10;22.80;;;;;;;9.56;59.07;100280.71;27246;1218;3052329;-70
2021/10/15 05:07:06;;;;;;;52.20;18.50;;;;;;;9.63;58.82;100282.33;27175;1216;3026483;-68
2021/10/15 05:09:37;;;;;;;40.90;17.40;;;;;;;9.68;58.64;100281.41;27246;1216;3026380;-71
2021/10/15 05:12:07;;;;;;;28.40;12.60;;;;;;;9.76;58.31;100281.05;27249;1216;3028294;-66
2021/10/15 05:14:56;;;;;;;27.60;12.70;;;;;;;9.84;57.83;100284.70;27288;1216;3067865;-69
2021/10/15 05:17:25;;;;;;;34.50;14.40;;;;;;;9.94;57.77;100286.41;27301;1216;3025917;-68
2021/10/15 05:19:54;;;;;;;37.10;15.10;;;;;;;10.00;57.29;100288.59;27265;1217;3050199;-70
2021/10/15 05:22:23;;;;;;;44.40;18.70;;;;;;;10.05;57.17;100286.58;27207;1216;3025952;-65
2021/10/15 05:24:52;;;;;;;52.90;21.70;;;;;;;10.08;58.28;100291.51;27277;1209;3026383;-65
2021/10/15 05:27:21;;;;;;;55.50;22.00;;;;;;;10.18;57.98;100293.19;27266;1216;3053020;-72
2021/10/15 05:29:50;;;;;;;70.20;24.60;;;;;;;10.23;59.07;100298.86;27235;1216;3027504;-64
2021/10/15 05:32:20;;;;;;;57.00;23.60;;;;;;;10.29;59.60;100297.21;27293;1216;3054506;-69
2021/10/15 05:34:48;;;;;;;68.00;24.20;;;;;;;10.35;58.93;100297.33;27245;1216;3026528;-66
2021/10/15 05:37:17;;;;;;;75.90;28.00;;;;;;;10.41;60.49;100298.63;27227;1216;3048514;-71
2021/10/15 05:41:21;;;;;;;73.80;26.90;;;;;;;10.46;61.81;100304.37;34333;1219;3025952;-67
2021/10/15 05:43:50;;;;;;;84.60;36.30;;;;;;;10.68;61.29;100305.41;27201;1218;3028009;-70
2021/10/15 05:46:19;;;;;;;71.90;29.80;;;;;;;10.92;61.03;100303.59;27208;1218;3025706;-70
2021/10/15 05:48:48;;;;;;;76.20;27.60;;;;;;;10.83;61.44;100300.65;27231;1218;3050931;-72
2021/10/15 05:51:16;;;;;;;76.00;27.90;;;;;;;10.77;61.91;100300.95;27292;1216;3026821;-74
2021/10/15 05:53:46;;;;;;;68.50;28.80;;;;;;;10.73;61.88;100302.20;27190;1216;3070347;-69
2021/10/15 05:56:39;;;;;;;72.80;30.10;;;;;;;10.63;62.50;100306.88;27223;1216;3026427;-76
2021/10/15 05:59:08;;;;;;;77.00;28.60;;;;;;;10.65;62.56;100304.67;27230;1218;3054145;-71
2021/10/15 06:01:39;;;;;;;84.10;30.20;;;;;;;10.64;62.78;100306.12;27241;1216;3028030;-74
2021/10/15 06:15:20;;;;;;;48.10;24.30;;;;;;;10.79;59.81;100300.52;27211;1216;3050326;-70
2021/10/15 06:17:49;;;;;;;48.80;23.30;;;;;;;10.92;59.19;100301.98;27197;1216;3026122;-66
2021/10/15 06:20:19;;;;;;;48.80;23.60;;;;;;;11.00;58.39;100303.73;27224;1216;3056566;-72
2021/10/15 06:22:48;;;;;;;49.20;23.60;;;;;;;11.09;58.37;100305.39;27231;1216;3027557;-68
2021/10/15 06:25:16;;;;;;;39.30;21.70;;;;;;;11.20;56.97;100299.92;27241;1209;3026376;-70
2021/10/15 06:27:45;;;;;;;29.50;15.40;;;;;;;11.32;55.67;100300.39;27212;1216;3054815;-71
2021/10/15 06:30:14;;;;;;;30.30;16.50;;;;;;;11.46;54.13;100295.44;27283;1216;3025961;-71
2021/10/15 06:32:43;;;;;;;29.80;16.90;;;;;;;11.50;53.93;100297.20;27230;1215;3027937;-65
2021/10/15 06:35:12;;;;;;;26.40;14.20;;;;;;;11.58;53.65;100292.57;27251;1216;3054813;-68
2021/10/15 06:37:41;;;;;;;33.90;17.50;;;;;;;11.64;54.51;100294.20;27223;1215;3025999;-70
2021/10/15 06:40:11;;;;;;;32.50;17.50;;;;;;;11.69;55.21;100298.65;27229;1215;3051675;-68
2021/10/15 06:42:40;;;;;;;28.70;16.70;;;;;;;11.75;54.55;100296.96;27239;1215;3026144;-67
2021/10/15 06:45:09;;;;;;;33.60;17.30;;;;;;;11.81;55.14;100300.31;27296;1216;3028313;-66
2021/10/15 06:47:40;;;;;;;28.60;16.10;;;;;;;11.84;54.62;100297.00;27237;1216;3055749;-70
2021/10/15 06:50:09;;;;;;;34.50;15.90;;;;;;;11.88;54.57;100296.07;27277;1215;3027647;-73
2021/10/15 06:52:47;;;;;;;30.80;14.70;;;;;;;11.86;53.44;100298.69;27271;1216;3053227;-71
2021/10/15 06:55:18;;;;;;;17.00;10.80;;;;;;;11.92;52.11;100297.65;27258;1215;3052399;-72
2021/10/15 06:57:59;;;;;;;23.60;12.60;;;;;;;11.99;52.13;100291.88;27280;1215;3027610;-70
2021/10/15 07:00:28;;;;;;;28.30;13.60;;;;;;;12.09;52.43;100290.44;27207;1215;3052051;-74
2021/10/15 07:02:58;;;;;;;26.40;14.40;;;;;;;12.12;52.86;100292.57;27220;1216;3026239;-68
2021/10/15 07:05:27;;;;;;;32.90;16.70;;;;;;;12.14;52.94;100290.89;27258;1215;3027038;-71
2021/10/15 07:07:56;;;;;;;33.60;17.80;;;;;;;12.19;53.09;100290.27;27197;1216;3051029;-71
2021/10/15 07:10:25;;;;;;;32.20;17.00;;;;;;;12.25;53.48;100289.40;27251;1210;3026877;-66
2021/10/15 07:12:54;;;;;;;31.90;17.30;;;;;;;12.34;53.44;100288.42;27217;1216;3026398;-69
2021/10/15 07:15:33;;;;;;;33.20;16.60;;;;;;;12.30;52.74;100284.41;27196;1216;3048558;-72
2021/10/15 07:18:03;;;;;;;29.00;16.70;;;;;;;12.27;52.08;100284.05;27227;1216;3026458;-70
2021/10/15 07:20:32;;;;;;;36.40;16.40;;;;;;;12.26;51.41;100284.98;27236;1216;3055743;-68
2021/10/15 07:23:01;;;;;;;29.80;16.40;;;;;;;12.30;52.20;100282.15;27236;1216;3026059;-68
2021/10/15 07:25:30;;;;;;;34.20;15.90;;;;;;;12.47;51.95;100278.24;27267;1216;3051447;-69
2021/10/15 07:27:59;;;;;;;25.70;13.30;;;;;;;12.54;49.35;100277.30;27238;1215;3026269;-67
2021/10/15 07:30:28;;;;;;;25.00;13.10;;;;;;;12.55;48.42;100273.36;27260;1215;3051403;-70
2021/10/15 07:32:57;;;;;;;22.90;10.70;;;;;;;12.65;47.98;100268.42;27254;1209;3026435;-71
2021/10/15 07:35:26;;;;;;;14.60;8.70;;;;;;;12.57;46.16;100273.79;27212;1216;3047840;-71
2021/10/15 07:37:55;;;;;;;15.40;9.90;;;;;;;12.66;45.53;100270.11;27245;1215;3027498;-68
2021/10/15 07:40:24;;;;;;;13.70;8.20;;;;;;;12.74;45.63;100271.80;27223;1216;3070125;-67
2021/10/15 07:42:53;;;;;;;15.50;7.50;;;;;;;12.86;45.72;100271.44;27232;1215;3027819;-70
2021/10/15 07:45:25;;;;;;;22.90;9.70;;;;;;;12.93;46.92;100273.17;27248;1215;3026655;-70
2021/10/15 07:47:54;;;;;;;30.10;13.70;;;;;;;12.97;47.83;100272.03;27280;1216;3026393;-70
2021/10/15 07:50:23;;;;;;;33.80;15.10;;;;;;;13.06;48.72;100276.63;27202;1216;3029324;-71
2021/10/15 07:52:57;;;;;;;25.70;13.70;;;;;;;13.09;48.27;100279.80;27220;1215;3054901;-73
2021/10/15 07:55:26;;;;;;;23.70;12.10;;;;;;;12.91;48.39;100280.63;27232;1216;3025846;-67
2021/10/15 07:57:55;;;;;;;30.50;11.70;;;;;;;12.81;47.82;100280.33;27223;1215;3028145;-70
2021/10/15 08:00:24;;;;;;;30.20;13.70;;;;;;;12.76;48.13;100280.66;27207;1215;3051374;-68
2021/10/15 08:02:55;;;;;;;31.40;16.60;;;;;;;12.88;48.34;100269.59;27242;1215;3026221;-69
2021/10/15 08:05:24;;;;;;;28.70;14.90;;;;;;;13.04;48.10;100268.45;27197;1215;3051625;-70
2021/10/15 08:07:53;;;;;;;31.60;15.00;;;;;;;13.16;47.49;100273.60;27217;1215;3026011;-73
2021/10/15 08:10:22;;;;;;;35.70;13.30;;;;;;;13.23;47.51;100269.30;27218;1216;3026149;-72
2021/10/15 08:12:51;;;;;;;26.10;11.60;;;;;;;13.33;46.67;100272.11;27233;1215;3047893;-68
2021/10/15 08:15:21;;;;;;;23.90;10.40;;;;;;;13.41;46.13;100267.38;27257;1215;3026167;-70
2021/10/15 08:17:52;;;;;;;19.20;10.30;;;;;;;13.59;46.44;100277.61;27204;1215;3070815;-71
2021/10/15 08:20:21;;;;;;;20.70;9.90;;;;;;;13.50;45.18;100280.95;27203;1215;3028197;-68
2021/10/15 08:22:51;;;;;;;14.00;8.60;;;;;;;13.50;45.38;100283.73;27236;1215;3026452;-72
2021/10/15 08:25:21;;;;;;;18.00;8.80;;;;;;;13.55;45.17;100285.42;27265;1216;3068190;-67
2021/10/15 08:27:50;;;;;;;18.50;9.20;;;;;;;13.62;45.77;100282.70;27225;1215;3026117;-69
2021/10/15 08:30:19;;;;;;;21.40;10.50;;;;;;;13.72;45.20;100288.06;27285;1209;3025933;-71
2021/10/15 08:32:49;;;;;;;20.20;9.90;;;;;;;13.71;45.37;100284.10;27280;1216;3069772;-67
2021/10/15 08:35:18;;;;;;;18.10;10.00;;;;;;;13.94;44.77;100287.45;27299;1215;3026522;-69
2021/10/15 08:37:48;;;;;;;14.00;8.10;;;;;;;14.00;43.59;100283.53;27284;1216;3049981;-66
2021/10/15 08:40:17;;;;;;;13.10;8.20;;;;;;;14.09;43.22;100283.71;27293;1215;3027905;-69
2021/10/15 08:42:56;;;;;;;16.90;8.50;;;;;;;14.14;42.90;100279.52;27273;1216;3026308;-69
2021/10/15 08:45:30;;;;;;;15.50;8.90;;;;;;;14.13;42.44;100283.64;27229;1216;3050348;-70
2021/10/15 08:47:59;;;;;;;16.20;9.50;;;;;;;14.23;42.65;100280.52;27244;1216;3069069;-67
2021/10/15 08:50:28;;;;;;;17.90;9.90;;;;;;;14.24;42.64;100282.77;27232;1216;3026141;-72
2021/10/15 08:52:57;;;;;;;15.30;9.10;;;;;;;14.24;42.94;100282.27;27251;1216;3025846;-72
2021/10/15 08:55:26;;;;;;;15.40;9.30;;;;;;;14.32;42.20;100277.14;27234;1216;3066460;-65
2021/10/15 08:57:58;;;;;;;23.70;10.70;;;;;;;14.41;42.64;100275.37;27181;1216;3025983;-68
2021/10/15 09:00:29;;;;;;;13.90;9.00;;;;;;;14.38;42.35;100270.25;27210;1215;3050627;-72
2021/10/15 09:03:12;;;;;;;19.20;9.60;;;;;;;14.46;41.87;100270.63;27176;1215;3027167;-71
2021/10/15 09:05:43;;;;;;;21.60;9.80;;;;;;;14.63;42.02;100266.95;27263;1216;3049260;-69
2021/10/15 09:08:12;;;;;;;11.50;7.30;;;;;;;14.72;41.50;100261.41;27210;1216;3026389;-68
2021/10/15 09:10:41;;;;;;;12.00;7.50;;;;;;;14.65;40.98;100263.23;27301;1215;3025975;-71
2021/10/15 09:13:17;;;;;;;18.20;8.40;;;;;;;14.70;41.55;100264.05;27264;1216;3050559;-66
2021/10/15 09:15:47;;;;;;;16.80;8.30;;;;;;;14.73;41.82;100262.39;27246;1215;3052306;-69
2021/10/15 09:18:29;;;;;;;18.90;9.40;;;;;;;14.71;41.78;100254.27;27264;1208;3026237;-71
2021/10/15 09:20:58;;;;;;;12.90;8.50;;;;;;;14.43;41.81;100251.94;27272;1215;3059210;-69
2021/10/15 09:23:47;;;;;;;15.40;9.00;;;;;;;14.42;42.83;100253.08;27193;1216;3028318;-69
2021/10/15 09:26:17;;;;;;;14.60;8.70;;;;;;;14.36;42.39;100250.45;27250;1216;3052302;-66
2021/10/15 09:28:47;;;;;;;12.60;8.60;;;;;;;14.56;41.99;100247.61;27246;1216;3028925;-67
2021/10/15 09:31:15;;;;;;;13.30;8.40;;;;;;;14.72;41.68;100243.80;27237;1216;3053112;-73
2021/10/15 09:33:52;;;;;;;16.90;9.10;;;;;;;14.85;41.12;100243.11;27265;1209;3026066;-68
2021/10/15 09:36:21;;;;;;;16.00;8.50;;;;;;;14.95;40.82;100238.73;27242;1216;3049508;-68
2021/10/15 09:38:50;;;;;;;15.80;8.30;;;;;;;15.06;40.45;100242.58;27252;1216;3026099;-66
2021/10/15 09:41:38;;;;;;;16.90;8.90;;;;;;;15.09;40.33;100246.27;27231;1215;3070087;-70
2021/10/15 09:44:33;;;;;;;14.90;8.60;;;;;;;15.22;39.23;100241.73;27214;1215;3049567;-69
2021/10/15 09:47:27;;;;;;;13.40;9.10;;;;;;;15.28;39.25;100236.02;27200;1216;3051486;-72
2021/10/15 09:50:05;;;;;;;12.60;8.30;;;;;;;15.38;39.79;100235.14;27244;1216;3052280;-69
2021/10/15 09:52:40;;;;;;;16.00;9.60;;;;;;;15.48;39.50;100233.56;27262;1216;3054790;-71
2021/10/15 09:55:13;;;;;;;29.30;11.30;;;;;;;15.58;38.74;100229.02;27237;1215;3049560;-73
2021/10/15 09:57:44;;;;;;;24.00;11.20;;;;;;;15.58;38.36;100225.99;27258;1216;3027341;-66
2021/10/15 10:00:19;;;;;;;21.00;11.10;;;;;;;15.75;38.22;100223.95;27251;1216;3026426;-69
2021/10/15 10:02:48;;;;;;;22.50;10.70;;;;;;;15.80;38.21;100219.17;27220;1216;3071121;-68
2021/10/15 10:05:18;;;;;;;19.40;10.20;;;;;;;15.88;37.64;100212.09;27249;1216;3026752;-70
2021/10/15 10:07:49;;;;;;;20.70;10.80;;;;;;;15.91;37.16;100207.84;27279;1215;3051481;-71
2021/10/15 10:10:24;;;;;;;20.20;9.80;;;;;;;15.91;37.52;100197.05;27191;1216;3071084;-69
2021/10/15 10:13:13;;;;;;;20.40;10.40;;;;;;;15.90;37.19;100196.08;27243;1216;3049097;-63
2021/10/15 10:15:44;;;;;;;19.00;10.60;;;;;;;16.01;37.38;100196.19;27236;1209;3026365;-66
2021/10/15 10:21:03;;;;;;;20.90;10.40;;;;;;;16.27;36.24;100199.81;27238;1216;3026485;-65
2021/10/15 10:23:53;;;;;;;20.60;10.60;;;;;;;16.15;35.84;100201.02;27207;1216;3049909;-65
2021/10/15 10:26:22;;;;;;;21.10;10.10;;;;;;;15.94;36.36;100201.98;27240;1216;3052163;-68
2021/10/15 10:29:05;;;;;;;18.40;11.00;;;;;;;15.86;36.57;100200.79;27184;1215;3026076;-68
2021/10/15 10:31:34;;;;;;;20.20;10.20;;;;;;;15.90;36.66;100197.51;27245;1215;3071236;-67
2021/10/15 10:34:14;;;;;;;19.50;10.50;;;;;;;15.92;36.41;100192.39;27241;1215;3026418;-69
2021/10/15 10:36:43;;;;;;;19.90;10.30;;;;;;;15.85;36.48;100192.02;27190;1216;3054717;-67
2021/10/15 10:39:18;;;;;;;21.80;11.40;;;;;;;15.68;36.88;100182.91;27188;1216;3026481;-65
2021/10/15 10:42:18;;;;;;;21.30;10.90;;;;;;;15.87;36.96;100185.33;27219;1215;3048282;-65
2021/10/15 10:44:50;;;;;;;21.50;11.00;;;;;;;16.05;36.79;100185.98;27240;1216;3051855;-67
2021/10/15 10:47:20;;;;;;;18.10;9.70;;;;;;;16.19;36.27;100184.66;27201;1216;3025998;-66
2021/10/15 10:50:02;;;;;;;16.10;10.50;;;;;;;16.25;36.00;100184.02;27224;1215;3026877;-65
2021/10/15 10:52:46;;;;;;;19.10;10.90;;;;;;;16.24;35.79;100180.20;27185;1216;3049637;-67
2021/10/15 10:55:54;;;;;;;20.70;11.00;;;;;;;16.19;35.91;100181.79;27250;1215;3052255;-69
2021/10/15 10:58:34;;;;;;;20.00;9.90;;;;;;;16.34;35.92;100184.46;27276;1218;3051467;-65
2021/10/15 11:01:28;;;;;;;22.90;10.20;;;;;;;16.47;36.00;100181.75;27186;1218;3067388;-62
2021/10/15 11:03:58;;;;;;;18.10;10.70;;;;;;;16.40;35.86;100176.06;27196;1218;3051285;-69
2021/10/15 11:06:59;;;;;;;20.60;9.70;;;;;;;16.42;35.66;100180.50;27234;1218;3026705;-65
2021/10/15 11:09:29;;;;;;;24.40;12.40;;;;;;;16.57;35.60;100174.61;27166;1218;3071174;-66
2021/10/15 11:11:58;;;;;;;21.80;10.80;;;;;;;16.46;35.67;100168.20;27197;1219;3026124;-69
2021/10/15 11:14:55;;;;;;;19.80;11.10;;;;;;;16.50;35.60;100161.35;27182;1218;3026160;-66
2021/10/15 11:17:28;;;;;;;22.20;10.80;;;;;;;16.56;35.50;100159.16;27214;1221;3052701;-63
2021/10/15 11:20:13;;;;;;;19.60;10.80;;;;;;;16.52;35.74;100157.11;27193;1221;3058685;-69
2021/10/15 11:22:59;;;;;;;21.30;10.30;;;;;;;16.62;35.49;100154.45;27176;1221;3049431;-65
2021/10/15 11:25:37;;;;;;;19.40;11.20;;;;;;;16.60;35.81;100154.75;27229;1222;3054930;-67
2021/10/15 11:28:11;;;;;;;20.20;10.10;;;;;;;16.71;35.79;100154.67;27159;1222;3053281;-69
2021/10/15 11:30:51;;;;;;;22.60;11.20;;;;;;;16.79;35.78;100153.54;27235;1218;3071028;-66
2021/10/15 11:33:21;;;;;;;22.30;12.10;;;;;;;16.77;36.17;100147.51;27214;1219;3048988;-65
2021/10/15 11:35:51;;;;;;;19.50;11.60;;;;;;;16.83;36.05;100142.06;27236;1217;3025960;-68
2021/10/15 11:38:27;;;;;;;23.10;10.90;;;;;;;16.85;35.77;100142.64;27218;1217;3025978;-68